Jennerstown, PA (15547)

3:32 PM EDT on August 28, 2015 (GMT -0400)
APRSWXNET | | Change Station
CLOSE
Current Station
Personal Weather Station
Location: Sipesville, PA
Elevation: 1970 ft
Nearby Weather Stations

Elev 1970 ft 40.12 °N, 79.10 °W | Updated 24 minutes ago

Partly Cloudy
Partly Cloudy
76 °F
Feels Like 78 °F
N
1
Wind Variable Wind from West
Gusts 5.0 mph

Today
High -- | Low -- °F
--% Chance of Precip.
Yesterday
High -- | Low -- °F
Precip. -- in
6:39 AM 7:54 PM
Waxing Gibbous, 99% visible
Pressure 30.20 in
Visibility 10.0 miles
Clouds Scattered Clouds 5000 ft
Heat Index 78 °F
Dew Point 52 °F
Humidity 44%
Rainfall in
Snow Depth Not available.
UV 7 out of 12
Pollen 9.60 out of 12
Air Quality Not available.
Flu Activity Not available.
METAR KJST 281854Z AUTO 00000KT 10SM SCT050 23/09 A3022 RMK AO2 SLP226 T02280089
Pressure 30.20 in
Visibility 10.0 miles
Clouds Scattered Clouds 5000 ft
Heat Index 78 °F
Dew Point 52 °F
Humidity 44%
Rainfall in
Snow Depth Not available.
UV 7 out of 12
Pollen 9.60 out of 12
Air Quality Not available.
Flu Activity Not available.
METAR KJST 281854Z AUTO 00000KT 10SM SCT050 23/09 A3022 RMK AO2 SLP226 T02280089

10-Day Weather Forecast

×

Almanac

Astronomy

Aug. 28, 2015 Rise Set
Actual Time
Civil Twilight
Nautical Twilight
Astronomical Twilight
Moon
Length of Visible Light
Length of Day
Tomorrow will be .
, % of the Moon is Illuminated

Today's Extremes

State Highs State Lows

Community

WunderPhotos

Upload Photos

1,850,464 photos uploaded!

WunderBlogs® & News

Nearby

Air Quality

  Air Quality AQ Index Pollutant
Not available.

Snow Depth

Station Depth Elevation

Earthquake Activity

City Distance Mag. Time & Date
Minimum magnitude displayed is 2.5.

Coastal Water Temperatures

Place Temperature

Stations

Nearby Weather Stations

Station Location Temp. Windchill Dew Point Humidity Wind Precip. Elev Updated Type